createdAt,value
2018-09-21T00:00:40.032Z,17.31
2018-09-21T00:03:11.693Z,17.32
2018-09-21T00:05:41.680Z,17.31
2018-09-21T00:08:11.563Z,17.29
2018-09-21T00:10:41.496Z,17.25
2018-09-21T00:13:11.435Z,17.23
2018-09-21T00:15:41.274Z,17.20
2018-09-21T00:18:11.164Z,17.14
2018-09-21T00:20:41.084Z,17.16
2018-09-21T00:23:10.960Z,17.09
2018-09-21T00:25:40.912Z,17.06
2018-09-21T00:28:10.792Z,17.07
2018-09-21T00:30:40.696Z,17.04
2018-09-21T00:33:10.635Z,17.00
2018-09-21T00:35:40.506Z,16.89
2018-09-21T00:38:10.405Z,16.91
2018-09-21T00:40:40.336Z,16.92
2018-09-21T00:43:10.345Z,16.92
2018-09-21T00:45:40.255Z,16.95
2018-09-21T00:48:10.328Z,16.95
2018-09-21T00:50:40.464Z,16.93
2018-09-21T00:53:10.383Z,16.93
2018-09-21T00:55:40.459Z,16.91
2018-09-21T00:58:10.390Z,16.91
2018-09-21T01:00:40.311Z,16.91
2018-09-21T01:03:10.272Z,16.91
2018-09-21T01:05:40.180Z,16.89
2018-09-21T01:08:10.072Z,16.90
2018-09-21T01:10:39.956Z,16.90
2018-09-21T01:13:09.891Z,16.91
2018-09-21T01:15:39.745Z,16.89
2018-09-21T01:18:09.624Z,16.87
2018-09-21T01:20:39.556Z,16.86
2018-09-21T01:23:09.457Z,16.81
2018-09-21T01:25:39.397Z,16.78
2018-09-21T01:28:09.268Z,16.78
2018-09-21T01:30:39.145Z,16.80
2018-09-21T01:33:09.010Z,16.76
2018-09-21T01:35:38.911Z,16.69
2018-09-21T01:38:08.829Z,16.67
2018-09-21T01:40:38.708Z,16.68
2018-09-21T01:43:08.644Z,16.67
2018-09-21T01:45:38.506Z,16.62
2018-09-21T01:48:08.348Z,16.62
2018-09-21T01:50:38.286Z,16.60
2018-09-21T01:53:08.164Z,16.62
2018-09-21T01:55:38.045Z,16.62
2018-09-21T01:58:07.924Z,16.61
2018-09-21T02:00:37.833Z,16.57
2018-09-21T02:03:08.339Z,16.53
2018-09-21T02:05:38.236Z,16.52
2018-09-21T02:08:08.006Z,16.48
2018-09-21T02:10:37.912Z,16.37
2018-09-21T02:13:07.992Z,16.30
2018-09-21T02:15:37.898Z,16.26
2018-09-21T02:18:07.728Z,16.26
2018-09-21T02:20:37.655Z,16.28
2018-09-21T02:23:07.539Z,16.27
2018-09-21T02:25:37.477Z,16.30
2018-09-21T02:28:07.325Z,16.28
2018-09-21T02:30:38.215Z,16.32
2018-09-21T02:33:08.778Z,16.30
2018-09-21T02:35:39.206Z,16.29
2018-09-21T02:38:09.398Z,16.28
2018-09-21T02:40:39.546Z,16.29
2018-09-21T02:43:09.824Z,16.26
2018-09-21T02:45:40.484Z,16.25
2018-09-21T02:48:10.643Z,16.17
2018-09-21T02:50:41.143Z,16.14
2018-09-21T02:53:11.827Z,16.12
2018-09-21T02:55:42.069Z,16.11
2018-09-21T02:58:13.326Z,16.12
2018-09-21T03:00:44.229Z,16.13
2018-09-21T03:03:15.099Z,16.13
2018-09-21T03:05:45.842Z,16.14
2018-09-21T03:08:15.605Z,16.12
2018-09-21T03:10:46.462Z,16.11
2018-09-21T03:13:16.300Z,16.09
2018-09-21T03:15:46.998Z,16.08
2018-09-21T03:18:18.872Z,16.06
2018-09-21T03:20:49.620Z,16.06
2018-09-21T03:23:19.638Z,16.04
2018-09-21T03:25:50.749Z,16.03
2018-09-21T03:28:20.844Z,16.02
2018-09-21T03:30:51.394Z,16.01
2018-09-21T03:33:22.134Z,16.03
2018-09-21T03:35:51.918Z,16.03
2018-09-21T03:38:21.753Z,16.02
2018-09-21T03:40:52.690Z,15.99
2018-09-21T03:43:22.574Z,15.87
2018-09-21T03:45:52.749Z,15.70
2018-09-21T03:48:22.612Z,15.61
2018-09-21T03:50:52.495Z,15.54
2018-09-21T03:53:22.344Z,15.58
2018-09-21T03:55:52.309Z,15.63
2018-09-21T03:58:22.175Z,15.65
2018-09-21T04:00:52.068Z,15.69
2018-09-21T04:03:21.971Z,15.71
2018-09-21T04:05:51.845Z,15.73
2018-09-21T04:08:21.773Z,15.72
2018-09-21T04:10:51.632Z,15.76
2018-09-21T04:13:21.440Z,15.78
2018-09-21T04:15:51.967Z,15.69
2018-09-21T04:18:21.884Z,15.55
2018-09-21T04:20:51.813Z,15.52
2018-09-21T04:23:21.703Z,15.50
2018-09-21T04:25:51.614Z,15.46
2018-09-21T04:28:21.537Z,15.50
2018-09-21T04:30:51.384Z,15.54
2018-09-21T04:33:21.284Z,15.59
2018-09-21T04:35:51.158Z,15.58
2018-09-21T04:38:20.946Z,15.62
2018-09-21T04:40:50.876Z,15.62
2018-09-21T04:43:20.832Z,15.66
2018-09-21T04:45:51.200Z,15.67
2018-09-21T04:48:20.947Z,15.68
2018-09-21T04:50:50.787Z,15.64
2018-09-21T04:53:20.678Z,15.64
2018-09-21T04:55:50.591Z,15.69
2018-09-21T04:58:20.437Z,15.69
2018-09-21T05:00:50.695Z,15.67
2018-09-21T05:03:20.743Z,15.67
2018-09-21T05:05:51.517Z,15.73
2018-09-21T05:08:21.407Z,15.79
2018-09-21T05:10:51.310Z,15.82
2018-09-21T05:13:21.282Z,15.89
2018-09-21T05:15:51.471Z,15.97
2018-09-21T05:18:21.332Z,16.04
2018-09-21T05:20:51.342Z,16.09
2018-09-21T05:23:21.284Z,16.15
2018-09-21T05:25:51.239Z,16.24
2018-09-21T05:28:21.129Z,16.28
2018-09-21T05:30:50.993Z,16.33
2018-09-21T05:33:20.965Z,16.40
2018-09-21T05:35:50.903Z,16.42
2018-09-21T05:38:20.762Z,16.48
2018-09-21T05:40:50.706Z,16.59
2018-09-21T05:43:20.650Z,16.83
2018-09-21T05:45:50.613Z,17.10
2018-09-21T05:48:20.469Z,17.38
2018-09-21T05:50:50.789Z,17.61
2018-09-21T05:53:20.777Z,17.74
2018-09-21T05:55:50.745Z,17.87
2018-09-21T05:58:20.647Z,17.98
2018-09-21T06:00:50.614Z,18.09
2018-09-21T06:03:20.505Z,18.22
2018-09-21T06:05:50.497Z,18.36
2018-09-21T06:08:20.600Z,18.43
2018-09-21T06:10:50.495Z,18.54
2018-09-21T06:13:20.382Z,18.63
2018-09-21T06:15:50.803Z,18.62
2018-09-21T06:18:20.655Z,18.63
2018-09-21T06:20:50.625Z,18.69
2018-09-21T06:23:20.596Z,18.76
2018-09-21T06:25:50.532Z,18.85
2018-09-21T06:28:20.399Z,18.95
2018-09-21T06:30:50.537Z,19.04
2018-09-21T06:33:20.573Z,19.12
2018-09-21T06:35:50.537Z,19.19
2018-09-21T06:38:20.514Z,19.26
2018-09-21T06:40:50.529Z,19.30
2018-09-21T06:43:20.513Z,19.40
2018-09-21T06:45:50.561Z,19.49
2018-09-21T06:48:20.478Z,19.62
2018-09-21T06:50:50.445Z,19.64
2018-09-21T06:53:20.417Z,19.69
2018-09-21T06:55:50.351Z,19.69
2018-09-21T06:58:20.201Z,19.70
2018-09-21T07:00:50.449Z,19.77
2018-09-21T07:03:20.353Z,19.83
2018-09-21T07:05:50.369Z,19.91
2018-09-21T07:08:20.312Z,19.99
2018-09-21T07:10:50.770Z,20.01
2018-09-21T07:13:20.722Z,20.03
2018-09-21T07:15:50.732Z,20.09
2018-09-21T07:18:20.815Z,20.19
2018-09-21T07:20:50.758Z,20.16
2018-09-21T07:23:20.772Z,20.22
2018-09-21T07:25:50.751Z,20.34
2018-09-21T07:28:20.719Z,20.47
2018-09-21T07:30:50.716Z,20.60
2018-09-21T07:33:20.710Z,20.77
2018-09-21T07:35:50.817Z,20.84
2018-09-21T07:38:20.847Z,20.99
2018-09-21T07:40:50.815Z,21.06
2018-09-21T07:43:20.777Z,21.14
2018-09-21T07:45:50.746Z,21.17
2018-09-21T07:48:20.718Z,21.31
2018-09-21T07:50:50.712Z,21.41
2018-09-21T07:53:20.668Z,21.39
2018-09-21T07:55:50.610Z,21.51
2018-09-21T07:58:20.620Z,21.57
2018-09-21T08:00:50.550Z,21.61
2018-09-21T08:03:20.532Z,21.68
2018-09-21T08:05:50.500Z,21.89
2018-09-21T08:08:20.435Z,22.07
2018-09-21T08:10:50.489Z,22.15
2018-09-21T08:13:20.450Z,22.41
2018-09-21T08:15:50.386Z,22.64
2018-09-21T08:18:20.457Z,22.84
2018-09-21T08:20:50.521Z,23.08
2018-09-21T08:23:20.356Z,23.35
2018-09-21T08:25:50.417Z,23.61
2018-09-21T08:28:20.352Z,23.82
2018-09-21T08:30:50.361Z,23.95
2018-09-21T08:33:20.422Z,24.02
2018-09-21T08:35:50.286Z,24.21
2018-09-21T08:38:20.328Z,24.01
2018-09-21T08:40:50.279Z,23.88
2018-09-21T08:43:20.297Z,24.11
2018-09-21T08:45:50.292Z,24.44
2018-09-21T08:48:20.303Z,24.66
2018-09-21T08:50:50.322Z,24.89
2018-09-21T08:53:20.615Z,25.11
2018-09-21T08:55:50.629Z,25.27
2018-09-21T08:58:20.575Z,25.41
2018-09-21T09:00:50.630Z,25.53
2018-09-21T09:03:20.589Z,25.62
2018-09-21T09:05:52.422Z,25.72
2018-09-21T09:08:24.016Z,25.78
2018-09-21T09:10:54.520Z,25.07
2018-09-21T09:13:24.493Z,24.96
2018-09-21T09:15:54.509Z,25.23
2018-09-21T09:18:24.490Z,25.40
2018-09-21T09:20:54.462Z,25.44
2018-09-21T09:23:24.442Z,25.52
2018-09-21T09:25:54.406Z,25.69
2018-09-21T09:28:24.537Z,25.74
2018-09-21T09:30:54.454Z,25.83
2018-09-21T09:33:24.453Z,25.94
2018-09-21T09:35:54.430Z,25.96
2018-09-21T09:38:24.386Z,26.05
2018-09-21T09:40:54.357Z,26.08
2018-09-21T09:43:24.379Z,25.86
2018-09-21T09:45:54.445Z,25.73
2018-09-21T09:48:24.503Z,25.53
2018-09-21T09:50:54.369Z,25.67
2018-09-21T09:53:24.417Z,25.85
2018-09-21T09:55:54.426Z,25.90
2018-09-21T09:58:24.449Z,26.04
2018-09-21T10:00:54.870Z,25.94
2018-09-21T10:03:25.968Z,25.85
2018-09-21T10:05:55.895Z,25.84
2018-09-21T10:08:25.986Z,25.86
2018-09-21T10:10:55.957Z,25.97
2018-09-21T10:13:25.958Z,25.89
2018-09-21T10:15:55.872Z,25.91
2018-09-21T10:18:25.774Z,25.92
2018-09-21T10:20:55.825Z,25.97
2018-09-21T10:23:25.888Z,26.01
2018-09-21T10:25:55.867Z,26.00
2018-09-21T10:28:25.980Z,25.99
2018-09-21T10:30:55.838Z,25.92
2018-09-21T10:33:25.854Z,25.74
2018-09-21T10:35:55.758Z,25.70
2018-09-21T10:38:25.741Z,25.63
2018-09-21T10:40:55.801Z,25.55
2018-09-21T10:43:25.790Z,25.41
2018-09-21T10:45:55.773Z,25.42
2018-09-21T10:48:25.774Z,25.41
2018-09-21T10:50:55.791Z,25.41
2018-09-21T10:53:25.732Z,25.46
2018-09-21T10:55:55.701Z,25.33
2018-09-21T10:58:25.649Z,25.34
2018-09-21T11:00:55.653Z,25.13
2018-09-21T11:03:25.758Z,25.09
2018-09-21T11:05:55.797Z,25.10
2018-09-21T11:08:25.793Z,25.08
2018-09-21T11:10:55.810Z,25.11
2018-09-21T11:13:25.768Z,25.12
2018-09-21T11:15:55.817Z,25.02
2018-09-21T11:18:26.169Z,25.00
2018-09-21T11:20:56.157Z,25.07
2018-09-21T11:23:26.122Z,25.18
2018-09-21T11:25:56.062Z,25.28
2018-09-21T11:28:26.045Z,25.38
2018-09-21T11:30:56.019Z,25.34
2018-09-21T11:33:25.996Z,25.34
2018-09-21T11:35:56.053Z,25.32
2018-09-21T11:38:25.941Z,25.30
2018-09-21T11:40:55.842Z,25.28
2018-09-21T11:43:25.871Z,25.37
2018-09-21T11:45:55.986Z,25.31
2018-09-21T11:48:26.013Z,25.21
2018-09-21T11:50:56.154Z,25.21
2018-09-21T11:53:26.210Z,25.31
2018-09-21T11:55:56.194Z,25.34
2018-09-21T11:58:26.301Z,25.33
2018-09-21T12:00:56.326Z,25.35
2018-09-21T12:03:26.315Z,25.42
2018-09-21T12:05:56.313Z,25.37
2018-09-21T12:08:26.218Z,25.34
2018-09-21T12:10:56.234Z,25.25
2018-09-21T12:13:26.230Z,25.25
2018-09-21T12:15:56.302Z,25.31
2018-09-21T12:18:26.274Z,25.28
2018-09-21T12:20:56.403Z,25.38
2018-09-21T12:23:26.393Z,25.35
2018-09-21T12:25:56.389Z,25.27
2018-09-21T12:28:26.382Z,25.23
2018-09-21T12:30:56.329Z,25.25
2018-09-21T12:33:26.257Z,25.25
2018-09-21T12:35:56.329Z,25.22
2018-09-21T12:38:26.332Z,25.22
2018-09-21T12:40:56.297Z,25.34
2018-09-21T12:43:26.333Z,25.36
2018-09-21T12:45:56.397Z,25.35
2018-09-21T12:48:32.814Z,25.32
2018-09-21T12:51:02.810Z,25.25
2018-09-21T12:53:32.733Z,25.19
2018-09-21T12:56:02.723Z,25.18
2018-09-21T12:58:32.756Z,25.15
2018-09-21T13:01:02.659Z,25.25
2018-09-21T13:03:32.605Z,25.21
2018-09-21T13:06:02.589Z,25.20
2018-09-21T13:08:32.605Z,25.15
2018-09-21T13:11:02.610Z,25.14
2018-09-21T13:13:32.533Z,25.17
2018-09-21T13:16:02.590Z,25.10
2018-09-21T13:18:32.526Z,25.07
2018-09-21T13:21:02.482Z,25.02
2018-09-21T13:23:32.501Z,25.01
2018-09-21T13:26:02.498Z,25.05
2018-09-21T13:28:32.430Z,25.14
2018-09-21T13:31:02.481Z,25.08
2018-09-21T13:33:32.458Z,24.99
2018-09-21T13:36:02.476Z,24.89
2018-09-21T13:38:32.497Z,24.87
2018-09-21T13:41:02.472Z,24.88
2018-09-21T13:43:32.464Z,24.88
2018-09-21T13:46:02.469Z,24.86
2018-09-21T13:48:32.470Z,24.89
2018-09-21T13:51:02.502Z,24.93
2018-09-21T13:53:32.353Z,24.91
2018-09-21T13:56:02.364Z,24.86
2018-09-21T13:58:32.330Z,24.83
2018-09-21T14:01:02.282Z,24.82
2018-09-21T14:03:32.219Z,24.79
2018-09-21T14:06:04.306Z,24.78
2018-09-21T14:08:35.142Z,24.78
2018-09-21T14:11:05.630Z,24.77
2018-09-21T14:13:35.641Z,24.75
2018-09-21T14:16:05.661Z,24.73
2018-09-21T14:18:35.643Z,24.74
2018-09-21T14:21:05.617Z,24.71
2018-09-21T14:23:35.604Z,24.73
2018-09-21T14:26:05.517Z,24.74
2018-09-21T14:28:35.698Z,24.77
2018-09-21T14:31:05.678Z,24.73
2018-09-21T14:33:35.788Z,24.80
2018-09-21T14:36:05.879Z,24.78
2018-09-21T14:38:35.872Z,24.78
2018-09-21T14:41:06.064Z,24.77
2018-09-21T14:43:36.115Z,24.77
2018-09-21T14:46:06.141Z,24.74
2018-09-21T14:48:36.174Z,24.74
2018-09-21T14:51:06.201Z,24.73
2018-09-21T14:53:36.150Z,24.69
2018-09-21T14:56:06.114Z,24.67
2018-09-21T14:58:36.156Z,24.64
2018-09-21T15:01:06.193Z,24.77
2018-09-21T15:03:36.198Z,24.74
2018-09-21T15:06:06.247Z,24.72
2018-09-21T15:08:36.216Z,24.72
2018-09-21T15:11:06.252Z,24.73
2018-09-21T15:13:36.283Z,24.72
2018-09-21T15:16:06.321Z,24.69
2018-09-21T15:18:36.287Z,24.70
2018-09-21T15:21:06.295Z,24.66
2018-09-21T15:23:36.352Z,24.63
2018-09-21T15:26:06.418Z,24.59
2018-09-21T15:28:36.462Z,24.58
2018-09-21T15:31:06.434Z,24.60
2018-09-21T15:33:36.644Z,24.62
2018-09-21T15:36:06.834Z,24.61
2018-09-21T15:38:37.473Z,24.60
2018-09-21T15:41:07.493Z,24.56
2018-09-21T15:43:37.449Z,24.53
2018-09-21T15:46:07.471Z,24.52
2018-09-21T15:48:37.526Z,24.49
2018-09-21T15:51:08.037Z,24.45
2018-09-21T15:53:38.149Z,24.42
2018-09-21T15:56:08.754Z,24.37
2018-09-21T15:58:38.715Z,24.38
2018-09-21T16:01:08.717Z,24.38
2018-09-21T16:03:38.697Z,24.36
2018-09-21T16:06:08.752Z,24.32
2018-09-21T16:08:38.700Z,24.27
2018-09-21T16:11:15.207Z,24.20
2018-09-21T16:13:45.157Z,24.15
2018-09-21T16:16:15.217Z,24.09
2018-09-21T16:18:45.593Z,24.09
2018-09-21T16:21:15.568Z,24.04
2018-09-21T16:23:45.642Z,24.04
2018-09-21T16:26:15.619Z,24.06
2018-09-21T16:28:45.549Z,24.06
2018-09-21T16:31:15.518Z,24.03
2018-09-21T16:33:45.501Z,23.99
2018-09-21T16:36:15.657Z,23.93
2018-09-21T16:38:45.625Z,23.88
2018-09-21T16:41:15.641Z,23.82
2018-09-21T16:43:45.638Z,23.73
2018-09-21T16:46:15.684Z,23.64
2018-09-21T16:48:45.659Z,19.78
2018-09-21T16:51:15.727Z,23.45
2018-09-21T16:53:45.625Z,23.35
2018-09-21T16:56:15.670Z,23.24
2018-09-21T16:58:45.757Z,23.13
2018-09-21T17:01:15.688Z,23.04
2018-09-21T17:03:45.690Z,22.11
2018-09-21T17:06:15.652Z,22.86
2018-09-21T17:08:45.651Z,22.78
2018-09-21T17:11:15.665Z,22.73
2018-09-21T17:13:46.213Z,22.69
2018-09-21T17:16:16.309Z,22.63
2018-09-21T17:18:46.246Z,22.55
2018-09-21T17:21:16.274Z,22.46
2018-09-21T17:23:46.247Z,22.41
2018-09-21T17:26:16.265Z,22.36
2018-09-21T17:28:46.201Z,22.28
2018-09-21T17:31:16.124Z,22.23
2018-09-21T17:33:46.110Z,22.17
2018-09-21T17:36:16.107Z,22.13
2018-09-21T17:38:47.093Z,22.07
2018-09-21T17:41:17.137Z,22.03
2018-09-21T17:43:47.134Z,21.96
2018-09-21T17:46:17.073Z,21.91
2018-09-21T17:48:47.091Z,21.86
2018-09-21T17:51:17.135Z,21.84
2018-09-21T17:53:47.065Z,21.81
2018-09-21T17:56:17.162Z,21.79
2018-09-21T17:58:47.922Z,21.76
2018-09-21T18:01:18.025Z,21.72
2018-09-21T18:03:48.106Z,21.68
2018-09-21T18:06:18.243Z,21.61
2018-09-21T18:08:48.389Z,21.56
2018-09-21T18:11:18.510Z,21.49
2018-09-21T18:13:48.523Z,21.41
2018-09-21T18:16:18.619Z,21.38
2018-09-21T18:18:48.701Z,21.30
2018-09-21T18:21:18.665Z,21.23
2018-09-21T18:23:48.826Z,21.15
2018-09-21T18:26:18.814Z,21.07
2018-09-21T18:28:48.846Z,21.03
2018-09-21T18:31:19.381Z,20.99
2018-09-21T18:33:49.930Z,20.97
2018-09-21T18:36:21.579Z,20.96
2018-09-21T18:38:51.774Z,20.95
2018-09-21T18:41:21.686Z,20.93
2018-09-21T18:43:51.826Z,20.93
2018-09-21T18:46:21.828Z,20.92
2018-09-21T18:48:51.911Z,20.93
2018-09-21T18:51:21.910Z,20.93
2018-09-21T18:53:51.936Z,20.92
2018-09-21T18:56:21.974Z,20.92
2018-09-21T18:58:51.965Z,20.93
2018-09-21T19:01:21.817Z,20.99
2018-09-21T19:03:51.891Z,20.94
2018-09-21T19:06:22.234Z,20.93
2018-09-21T19:08:52.411Z,20.88
2018-09-21T19:11:22.569Z,20.84
2018-09-21T19:13:52.665Z,20.83
2018-09-21T19:16:22.963Z,20.78
2018-09-21T19:18:53.118Z,20.70
2018-09-21T19:21:30.349Z,20.58
2018-09-21T19:24:00.434Z,20.52
2018-09-21T19:26:30.573Z,20.44
2018-09-21T19:29:01.323Z,20.36
2018-09-21T19:31:31.402Z,20.29
2018-09-21T19:34:01.591Z,20.21
2018-09-21T19:36:31.758Z,20.15
2018-09-21T19:39:02.073Z,20.07
2018-09-21T19:41:32.263Z,20.05
2018-09-21T19:44:02.624Z,19.98
2018-09-21T19:46:33.475Z,19.95
2018-09-21T19:49:03.804Z,19.92
2018-09-21T19:51:35.656Z,19.90
2018-09-21T19:54:05.649Z,19.90
2018-09-21T19:56:36.077Z,19.92
2018-09-21T19:59:06.381Z,19.93
2018-09-21T20:01:36.531Z,19.91
2018-09-21T20:04:06.858Z,19.86
2018-09-21T20:06:37.882Z,19.80
2018-09-21T20:09:10.039Z,19.74
2018-09-21T20:11:40.985Z,19.79
2018-09-21T20:14:11.313Z,19.80
2018-09-21T20:16:41.786Z,19.81
2018-09-21T20:19:11.938Z,19.81
2018-09-21T20:21:42.098Z,19.79
2018-09-21T20:24:12.179Z,19.77
2018-09-21T20:26:42.307Z,19.73
2018-09-21T20:29:12.700Z,19.72
2018-09-21T20:31:47.963Z,19.72
2018-09-21T20:34:18.197Z,19.68
2018-09-21T20:36:49.568Z,19.64
2018-09-21T20:39:19.610Z,19.65
2018-09-21T20:41:49.762Z,19.66
2018-09-21T20:44:20.103Z,19.56
2018-09-21T20:46:50.137Z,19.52
2018-09-21T20:49:20.315Z,19.51
2018-09-21T20:51:50.686Z,19.48
2018-09-21T20:54:20.880Z,19.43
2018-09-21T20:56:51.057Z,19.33
2018-09-21T20:59:21.340Z,19.28
2018-09-21T21:01:51.383Z,19.28
2018-09-21T21:04:21.666Z,19.27
2018-09-21T21:06:51.698Z,19.27
2018-09-21T21:09:22.693Z,19.27
2018-09-21T21:11:52.790Z,19.22
2018-09-21T21:14:23.724Z,19.17
2018-09-21T21:16:54.256Z,19.12
2018-09-21T21:19:24.261Z,19.08
2018-09-21T21:21:54.317Z,19.04
2018-09-21T21:24:24.302Z,19.04
2018-09-21T21:26:54.337Z,19.00
2018-09-21T21:29:24.505Z,19.01
2018-09-21T21:31:54.418Z,19.00
2018-09-21T21:34:24.460Z,18.99
2018-09-21T21:36:55.423Z,18.98
2018-09-21T21:39:25.951Z,18.99
2018-09-21T21:41:56.361Z,18.97
2018-09-21T21:44:26.653Z,18.87
2018-09-21T21:46:56.544Z,18.78
2018-09-21T21:49:26.714Z,18.66
2018-09-21T21:51:56.809Z,18.57
2018-09-21T21:54:27.090Z,18.56
2018-09-21T21:56:57.260Z,18.59
2018-09-21T21:59:27.221Z,18.64
2018-09-21T22:01:58.922Z,18.68
2018-09-21T22:04:29.045Z,18.74
2018-09-21T22:06:59.149Z,18.75
2018-09-21T22:09:29.598Z,18.76
2018-09-21T22:12:04.861Z,18.75
2018-09-21T22:14:34.871Z,18.76
2018-09-21T22:17:04.869Z,18.73
2018-09-21T22:19:34.838Z,18.73
2018-09-21T22:22:04.655Z,18.71
2018-09-21T22:24:34.599Z,18.69
2018-09-21T22:27:04.469Z,18.72
2018-09-21T22:29:34.439Z,18.67
2018-09-21T22:32:04.342Z,18.64
2018-09-21T22:34:34.283Z,18.60
2018-09-21T22:37:04.178Z,18.53
2018-09-21T22:39:33.998Z,18.47
2018-09-21T22:42:03.951Z,18.43
2018-09-21T22:44:33.812Z,18.42
2018-09-21T22:47:03.723Z,18.42
2018-09-21T22:49:33.618Z,18.47
2018-09-21T22:52:03.559Z,18.53
2018-09-21T22:54:33.494Z,18.55
2018-09-21T22:57:03.613Z,18.50
2018-09-21T22:59:33.578Z,18.48
2018-09-21T23:02:03.573Z,18.47
2018-09-21T23:04:33.436Z,18.48
2018-09-21T23:07:03.625Z,18.43
2018-09-21T23:09:33.655Z,18.32
2018-09-21T23:12:03.605Z,18.32
2018-09-21T23:14:33.477Z,18.30
2018-09-21T23:17:03.437Z,18.25
2018-09-21T23:19:33.347Z,18.21
2018-09-21T23:22:03.292Z,18.24
2018-09-21T23:24:33.238Z,18.31
2018-09-21T23:27:03.148Z,18.39
2018-09-21T23:29:33.105Z,18.39
2018-09-21T23:32:02.974Z,18.32
2018-09-21T23:34:32.993Z,18.33
2018-09-21T23:37:02.902Z,18.39
2018-09-21T23:39:32.795Z,18.41
2018-09-21T23:42:02.695Z,18.42
2018-09-21T23:44:33.312Z,18.39
2018-09-21T23:47:03.329Z,18.35
2018-09-21T23:49:33.199Z,18.32
2018-09-21T23:52:03.150Z,18.32
2018-09-21T23:54:33.049Z,18.41
2018-09-21T23:57:02.925Z,18.46
2018-09-21T23:59:32.902Z,18.57
